Time,TemperatureF,DewpointF,PressureIn,WindDirection,WindDirectionDegrees,WindSpeedMPH,WindSpeedGustMPH,Humidity,HourlyPrecipIn,Conditions,Clouds,dailyrainin,SoftwareType,DateUTC
2013-03-20 00:12:00,23.5,15.0,30.33,SW,223,2.0,3.0,71,0.00,,,0.00,weatherlink.com 1.10,2013-03-20 06:12:00,
2013-03-20 00:27:00,22.3,16.0,30.32,SW,231,1.0,2.0,75,0.00,,,0.00,weatherlink.com 1.10,2013-03-20 06:27:00,
2013-03-20 00:42:00,22.4,16.0,30.31,ESE,110,0.0,4.0,76,0.00,,,0.00,weatherlink.com 1.10,2013-03-20 06:42:00,
2013-03-20 00:57:00,21.8,16.0,30.30,South,176,0.0,3.0,77,0.00,,,0.00,weatherlink.com 1.10,2013-03-20 06:57:00,
2013-03-20 01:12:00,22.4,15.0,30.30,WNW,288,1.0,4.0,73,0.00,,,0.00,weatherlink.com 1.10,2013-03-20 07:12:00,
2013-03-20 01:27:00,22.4,14.0,30.29,NNW,347,0.0,2.0,71,0.00,,,0.00,weatherlink.com 1.10,2013-03-20 07:27:00,
2013-03-20 01:42:00,22.0,15.0,30.29,South,178,0.0,1.0,73,0.00,,,0.00,weatherlink.com 1.10,2013-03-20 07:42:00,
2013-03-20 01:57:00,22.9,15.0,30.28,SE,128,1.0,5.0,72,0.00,,,0.00,weatherlink.com 1.10,2013-03-20 07:57:00,
2013-03-20 02:12:00,22.5,15.0,30.27,SSW,201,0.0,2.0,73,0.00,,,0.00,weatherlink.com 1.10,2013-03-20 08:12:00,
2013-03-20 02:27:00,22.1,15.0,30.27,ESE,110,0.0,3.0,73,0.00,,,0.00,weatherlink.com 1.10,2013-03-20 08:27:00,
2013-03-20 02:42:00,22.6,15.0,30.26,NNW,341,0.0,2.0,73,0.00,,,0.00,weatherlink.com 1.10,2013-03-20 08:42:00,
2013-03-20 02:57:00,22.7,15.0,30.24,East,86,1.0,3.0,73,0.00,,,0.00,weatherlink.com 1.10,2013-03-20 08:57:00,
2013-03-20 03:12:00,21.5,15.0,30.23,NNE,28,0.0,3.0,76,0.00,,,0.00,weatherlink.com 1.10,2013-03-20 09:12:00,
2013-03-20 03:27:00,20.9,15.0,30.22,West,270,1.0,2.0,78,0.00,,,0.00,weatherlink.com 1.10,2013-03-20 09:27:00,
2013-03-20 03:43:00,21.1,15.0,30.21,WSW,252,0.0,2.0,77,0.00,,,0.00,weatherlink.com 1.10,2013-03-20 09:43:00,
2013-03-20 03:58:00,20.4,15.0,30.20,SW,226,0.0,1.0,78,0.00,,,0.00,weatherlink.com 1.10,2013-03-20 09:58:00,
2013-03-20 04:13:00,20.5,15.0,30.20,WSW,238,2.0,4.0,78,0.00,,,0.00,weatherlink.com 1.10,2013-03-20 10:13:00,
2013-03-20 04:28:00,20.7,15.0,30.19,WNW,290,1.0,3.0,78,0.00,,,0.00,weatherlink.com 1.10,2013-03-20 10:28:00,
2013-03-20 04:43:00,20.2,15.0,30.18,WNW,299,0.0,1.0,79,0.00,,,0.00,weatherlink.com 1.10,2013-03-20 10:43:00,
2013-03-20 04:58:00,20.0,14.0,30.17,SSE,149,1.0,4.0,78,0.00,,,0.00,weatherlink.com 1.10,2013-03-20 10:58:00,
2013-03-20 05:13:00,19.7,14.0,30.16,SE,127,0.0,2.0,78,0.00,,,0.00,weatherlink.com 1.10,2013-03-20 11:13:00,
2013-03-20 05:28:00,19.0,14.0,30.15,SE,126,1.0,1.0,80,0.00,,,0.00,weatherlink.com 1.10,2013-03-20 11:28:00,
2013-03-20 05:43:00,17.9,13.0,30.15,SW,225,1.0,1.0,82,0.00,,,0.00,weatherlink.com 1.10,2013-03-20 11:43:00,
2013-03-20 05:58:00,18.1,13.0,30.14,South,172,2.0,2.0,81,0.00,,,0.00,weatherlink.com 1.10,2013-03-20 11:58:00,
2013-03-20 06:13:00,17.8,13.0,30.13,South,170,0.0,1.0,81,0.00,,,0.00,weatherlink.com 1.10,2013-03-20 12:13:00,
2013-03-20 06:28:00,17.1,13.0,30.11,East,98,0.0,1.0,83,0.00,,,0.00,weatherlink.com 1.10,2013-03-20 12:28:00,
2013-03-20 06:43:00,16.6,13.0,30.11,SW,232,0.0,2.0,84,0.00,,,0.00,weatherlink.com 1.10,2013-03-20 12:43:00,
2013-03-20 06:58:00,16.6,13.0,30.10,SSW,206,1.0,1.0,86,0.00,,,0.00,weatherlink.com 1.10,2013-03-20 12:58:00,
2013-03-20 07:13:00,16.4,12.0,30.08,SE,134,0.0,2.0,84,0.00,,,0.00,weatherlink.com 1.10,2013-03-20 13:13:00,
2013-03-20 07:28:00,16.7,13.0,30.07,East,99,0.0,0.0,85,0.00,,,0.00,weatherlink.com 1.10,2013-03-20 13:28:00,
2013-03-20 07:43:00,16.9,13.0,30.07,WSW,240,2.0,5.0,85,0.00,,,0.00,weatherlink.com 1.10,2013-03-20 13:43:00,
2013-03-20 07:58:00,19.8,16.0,30.07,West,278,0.0,3.0,84,0.00,,,0.00,weatherlink.com 1.10,2013-03-20 13:58:00,
2013-03-20 08:13:00,22.1,18.0,30.06,SSW,199,0.0,1.0,83,0.00,,,0.00,weatherlink.com 1.10,2013-03-20 14:13:00,
2013-03-20 08:28:00,24.0,18.0,30.05,SSE,152,0.0,1.0,78,0.00,,,0.00,weatherlink.com 1.10,2013-03-20 14:28:00,
2013-03-20 08:43:00,24.1,19.0,30.04,West,264,0.0,3.0,79,0.00,,,0.00,weatherlink.com 1.10,2013-03-20 14:43:00,
2013-03-20 08:58:00,25.7,19.0,30.03,WSW,240,2.0,3.0,77,0.00,,,0.00,weatherlink.com 1.10,2013-03-20 14:58:00,
2013-03-20 09:13:00,27.7,21.0,30.02,West,281,2.0,3.0,76,0.00,,,0.00,weatherlink.com 1.10,2013-03-20 15:13:00,
2013-03-20 09:29:00,30.3,22.0,30.02,NNE,13,2.0,5.0,70,0.00,,,0.00,weatherlink.com 1.10,2013-03-20 15:29:00,
2013-03-20 09:44:00,32.3,20.0,30.00,NE,55,4.0,5.0,61,0.00,,,0.00,weatherlink.com 1.10,2013-03-20 15:44:00,
2013-03-20 09:59:00,33.9,20.0,29.99,NNE,13,4.0,5.0,57,0.00,,,0.00,weatherlink.com 1.10,2013-03-20 15:59:00,
2013-03-20 10:14:00,35.9,20.0,29.98,NE,38,4.0,4.0,52,0.00,,,0.00,weatherlink.com 1.10,2013-03-20 16:14:00,
2013-03-20 10:29:00,37.3,18.0,29.97,NNE,32,4.0,5.0,46,0.00,,,0.00,weatherlink.com 1.10,2013-03-20 16:29:00,
2013-03-20 10:44:00,38.2,18.0,29.96,ENE,68,0.0,5.0,45,0.00,,,0.00,weatherlink.com 1.10,2013-03-20 16:44:00,
2013-03-20 10:59:00,39.3,19.0,29.96,East,85,3.0,7.0,44,0.00,,,0.00,weatherlink.com 1.10,2013-03-20 16:59:00,
2013-03-20 11:14:00,40.7,18.0,29.94,WSW,246,2.0,7.0,40,0.00,,,0.00,weatherlink.com 1.10,2013-03-20 17:14:00,
2013-03-20 11:29:00,42.8,17.0,29.93,SSW,203,5.0,13.0,35,0.00,,,0.00,weatherlink.com 1.10,2013-03-20 17:29:00,
2013-03-20 11:44:00,44.0,17.0,29.92,SSE,154,9.0,10.0,34,0.00,,,0.00,weatherlink.com 1.10,2013-03-20 17:44:00,
2013-03-20 11:59:00,44.7,16.0,29.91,SSE,150,4.0,10.0,31,0.00,,,0.00,weatherlink.com 1.10,2013-03-20 17:59:00,
2013-03-20 12:14:00,44.8,19.0,29.90,East,89,5.0,7.0,35,0.00,,,0.00,weatherlink.com 1.10,2013-03-20 18:14:00,
2013-03-20 12:29:00,44.4,19.0,29.89,ESE,116,6.0,11.0,36,0.00,,,0.00,weatherlink.com 1.10,2013-03-20 18:29:00,
2013-03-20 12:44:00,44.8,19.0,29.88,ESE,110,4.0,8.0,35,0.00,,,0.00,weatherlink.com 1.10,2013-03-20 18:44:00,
2013-03-20 13:00:00,45.9,17.0,29.86,WSW,255,4.0,11.0,32,0.00,,,0.00,weatherlink.com 1.10,2013-03-20 19:00:00,
2013-03-20 13:15:00,46.1,16.0,29.86,East,94,10.0,12.0,30,0.00,,,0.00,weatherlink.com 1.10,2013-03-20 19:15:00,
2013-03-20 13:30:00,46.2,19.0,29.85,ESE,107,9.0,11.0,34,0.00,,,0.00,weatherlink.com 1.10,2013-03-20 19:30:00,
2013-03-20 13:45:00,47.1,21.0,29.85,East,95,6.0,9.0,35,0.00,,,0.00,weatherlink.com 1.10,2013-03-20 19:45:00,
2013-03-20 14:00:00,47.7,21.0,29.83,ESE,106,4.0,9.0,35,0.00,,,0.00,weatherlink.com 1.10,2013-03-20 20:00:00,
2013-03-20 14:15:00,48.8,22.0,29.82,SSE,151,6.0,10.0,35,0.00,,,0.00,weatherlink.com 1.10,2013-03-20 20:15:00,
2013-03-20 14:30:00,50.8,22.0,29.80,SE,138,8.0,12.0,32,0.00,,,0.00,weatherlink.com 1.10,2013-03-20 20:30:00,
2013-03-20 14:45:00,50.8,21.0,29.80,ESE,103,11.0,14.0,31,0.00,,,0.00,weatherlink.com 1.10,2013-03-20 20:45:00,
2013-03-20 15:00:00,51.1,21.0,29.79,SSE,166,6.0,12.0,31,0.00,,,0.00,weatherlink.com 1.10,2013-03-20 21:00:00,
2013-03-20 15:15:00,52.0,22.0,29.78,SSW,199,6.0,13.0,31,0.00,,,0.00,weatherlink.com 1.10,2013-03-20 21:15:00,
2013-03-20 15:30:00,52.0,23.0,29.77,SSE,152,6.0,11.0,32,0.00,,,0.00,weatherlink.com 1.10,2013-03-20 21:30:00,
2013-03-20 15:45:00,51.6,23.0,29.76,East,99,6.0,13.0,33,0.00,,,0.00,weatherlink.com 1.10,2013-03-20 21:45:00,
2013-03-20 16:00:00,51.9,24.0,29.75,SSE,159,9.0,11.0,34,0.00,,,0.00,weatherlink.com 1.10,2013-03-20 22:00:00,
2013-03-20 16:15:00,51.6,23.0,29.75,SE,139,4.0,10.0,33,0.00,,,0.00,weatherlink.com 1.10,2013-03-20 22:15:00,
2013-03-20 16:30:00,50.7,25.0,29.74,East,101,8.0,13.0,37,0.00,,,0.00,weatherlink.com 1.10,2013-03-20 22:30:00,
2013-03-20 16:45:00,50.2,25.0,29.73,SE,133,7.0,14.0,37,0.00,,,0.00,weatherlink.com 1.10,2013-03-20 22:45:00,
2013-03-20 17:00:00,50.4,25.0,29.73,SE,134,11.0,12.0,37,0.00,,,0.00,weatherlink.com 1.10,2013-03-20 23:00:00,
2013-03-20 17:15:00,51.2,25.0,29.71,SE,132,10.0,13.0,36,0.00,,,0.00,weatherlink.com 1.10,2013-03-20 23:15:00,
2013-03-20 17:30:00,51.4,25.0,29.71,SE,127,10.0,12.0,36,0.00,,,0.00,weatherlink.com 1.10,2013-03-20 23:30:00,
2013-03-20 18:00:00,52.2,26.0,29.70,East,100,7.0,15.0,36,0.00,,,0.00,weatherlink.com 1.10,2013-03-21 00:00:00,
2013-03-20 18:15:00,52.4,25.0,29.69,ESE,122,2.0,8.0,34,0.00,,,0.00,weatherlink.com 1.10,2013-03-21 00:15:00,
2013-03-20 18:30:00,52.5,23.0,29.69,South,182,5.0,11.0,32,0.00,,,0.00,weatherlink.com 1.10,2013-03-21 00:30:00,
2013-03-20 18:45:00,52.4,23.0,29.69,East,95,1.0,4.0,32,0.00,,,0.00,weatherlink.com 1.10,2013-03-21 00:45:00,
2013-03-20 19:01:00,51.8,23.0,29.68,SE,144,1.0,3.0,33,0.00,,,0.00,weatherlink.com 1.10,2013-03-21 01:01:00,
2013-03-20 19:16:00,50.3,23.0,29.67,SE,129,0.0,2.0,34,0.00,,,0.00,weatherlink.com 1.10,2013-03-21 01:16:00,
2013-03-20 19:31:00,48.3,24.0,29.67,ENE,57,0.0,2.0,38,0.00,,,0.00,weatherlink.com 1.10,2013-03-21 01:31:00,
2013-03-20 19:46:00,46.5,24.0,29.66,SE,141,1.0,1.0,41,0.00,,,0.00,weatherlink.com 1.10,2013-03-21 01:46:00,
2013-03-20 20:01:00,45.1,24.0,29.66,ESE,115,1.0,4.0,44,0.00,,,0.00,weatherlink.com 1.10,2013-03-21 02:01:00,
2013-03-20 20:16:00,44.3,23.0,29.65,SSW,210,0.0,5.0,44,0.00,,,0.00,weatherlink.com 1.10,2013-03-21 02:16:00,
2013-03-20 20:31:00,42.4,24.0,29.64,SE,141,0.0,2.0,48,0.00,,,0.00,weatherlink.com 1.10,2013-03-21 02:31:00,
2013-03-20 20:46:00,42.9,24.0,29.63,East,80,2.0,6.0,47,0.00,,,0.00,weatherlink.com 1.10,2013-03-21 02:46:00,
2013-03-20 21:01:00,44.9,23.0,29.62,NNE,29,3.0,4.0,43,0.00,,,0.00,weatherlink.com 1.10,2013-03-21 03:01:00,
2013-03-20 21:31:00,42.8,24.0,29.62,WSW,237,0.0,3.0,47,0.00,,,0.00,weatherlink.com 1.10,2013-03-21 03:31:00,
2013-03-20 22:16:00,43.4,23.0,29.62,ENE,68,2.0,3.0,44,0.00,,,0.00,weatherlink.com 1.10,2013-03-21 04:16:00,
2013-03-20 22:31:00,41.9,23.0,29.61,SSW,209,1.0,6.0,47,0.00,,,0.00,weatherlink.com 1.10,2013-03-21 04:31:00,
2013-03-20 22:46:00,43.0,23.0,29.61,NNE,28,5.0,6.0,45,0.00,,,0.00,weatherlink.com 1.10,2013-03-21 04:46:00,
2013-03-20 23:01:00,42.9,23.0,29.61,WNW,297,1.0,6.0,45,0.00,,,0.00,weatherlink.com 1.10,2013-03-21 05:01:00,
2013-03-20 23:16:00,42.3,23.0,29.60,SW,224,1.0,6.0,46,0.00,,,0.00,weatherlink.com 1.10,2013-03-21 05:16:00,
2013-03-20 23:31:00,41.9,22.0,29.59,SSE,156,2.0,4.0,46,0.00,,,0.00,weatherlink.com 1.10,2013-03-21 05:31:00,
2013-03-20 23:46:00,38.6,23.0,29.59,ESE,107,1.0,4.0,53,0.00,,,0.00,weatherlink.com 1.10,2013-03-21 05:46:00,